Data for 04/22/2007

Time Sea-Level Adjusted Pressure Absolute Pressure Temperature Relative Humidity Dew Point   
(mb) (inHg) (mb) (inHg) (C) (F) (%) (C) (F)
00:05 1013 29.91 842 24.86 3.6 38.6 66 -2.1 28.2
00:10 1013 29.91 842 24.86 3.7 38.6 66 -2.1 28.1
00:15 1013 29.91 842 24.86 3.6 38.5 66 -2.1 28.2
00:20 1013 29.91 842 24.86 3.6 38.4 67 -2.1 28.3
00:25 1013 29.91 842 24.86 3.5 38.4 66 -2.1 28.2
00:30 1013 29.91 842 24.86 3.5 38.2 66 -2.3 27.9
00:35 1013 29.91 842 24.86 3.5 38.3 66 -2.3 27.8
00:40 1013 29.91 842 24.86 3.4 38.2 66 -2.3 27.8
00:45 1013 29.91 842 24.86 3.4 38.2 66 -2.3 27.9
00:50 1013 29.91 842 24.86 3.3 38 66 -2.5 27.5
00:55 1013 29.91 842 24.86 3.3 38 66 -2.4 27.6
01:00 1013 29.91 842 24.86 3.2 37.7 67 -2.4 27.7
01:05 1013 29.91 843 24.89 3.1 37.6 67 -2.5 27.6
01:10 1013 29.91 843 24.89 3.1 37.6 67 -2.4 27.7
01:15 1013 29.91 842 24.86 3.1 37.6 68 -2.3 27.8
01:20 1013 29.91 842 24.86 3.1 37.5 68 -2.3 27.9
01:25 1013 29.91 842 24.86 3 37.4 68 -2.4 27.7
01:30 1013 29.91 842 24.86 3 37.4 68 -2.3 27.8
01:35 1013 29.91 842 24.86 3.1 37.5 66 -2.6 27.4
01:40 1013 29.91 842 24.86 3.1 37.5 67 -2.5 27.5
01:45 1013 29.91 842 24.86 3 37.4 67 -2.4 27.6
01:50 1013 29.91 842 24.86 2.9 37.3 68 -2.4 27.7
01:55 1013 29.91 842 24.86 2.9 37.2 68 -2.5 27.6
02:00 1013 29.91 842 24.86 2.9 37.2 67 -2.6 27.3
02:05 1013 29.91 842 24.86 3 37.5 67 -2.5 27.5
02:10 1013 29.91 842 24.86 3.1 37.5 67 -2.5 27.5
02:15 1013 29.91 842 24.86 3 37.4 67 -2.5 27.5
02:20 1013 29.91 842 24.86 3.1 37.5 67 -2.5 27.5
02:25 1013 29.91 842 24.86 2.9 37.3 68 -2.5 27.6
02:30 1013 29.91 842 24.86 2.8 37.1 68 -2.6 27.4
02:35 1013 29.91 842 24.86 2.7 36.9 68 -2.6 27.4
02:40 1013 29.91 842 24.86 2.8 37 67 -2.7 27.1
02:45 1013 29.91 842 24.86 2.8 37 68 -2.5 27.5
02:50 1013 29.91 842 24.86 2.5 36.5 69 -2.5 27.4
02:55 1013 29.91 842 24.86 2.5 36.5 68 -2.9 26.9
03:00 1013 29.91 842 24.86 2.5 36.5 68 -2.7 27.1
03:05 1013 29.91 842 24.86 2.5 36.5 67 -2.9 26.7
03:10 1013 29.91 842 24.86 2.7 36.8 66 -3 26.6
03:15 1013 29.91 842 24.86 3 37.3 65 -3 26.5
03:20 1013 29.91 842 24.86 3 37.4 65 -3 26.7
03:25 1013 29.91 842 24.86 2.6 36.7 68 -2.7 27.1
03:30 1013 29.91 842 24.86 2.4 36.4 68 -3 26.7
03:35 1013 29.91 842 24.86 2.4 36.2 69 -2.8 27
03:40 1013 29.91 842 24.86 2.2 36 69 -2.9 26.7
03:45 1013 29.91 842 24.86 2.4 36.3 67 -3 26.6
03:50 1013 29.91 842 24.86 2.6 36.7 67 -3 26.7
03:55 1013 29.91 842 24.86 2.6 36.7 66 -3 26.5
04:00 1013 29.91 842 24.86 2.9 37.1 65 -3 26.6
04:05 1013 29.91 842 24.86 2.7 36.8 67 -2.9 26.7
04:10 1013 29.91 842 24.86 2.5 36.6 66 -3.2 26.3
04:15 1013 29.91 842 24.86 2.8 37 65 -3.2 26.3
04:20 1013 29.91 842 24.86 3 37.4 63 -3.3 26
04:25 1013 29.91 842 24.86 3.8 38.8 60 -3.3 26.1
04:30 1013 29.91 842 24.86 3.8 38.9 60 -3.1 26.4
04:35 1013 29.91 842 24.86 3.6 38.4 62 -3.1 26.5
04:40 1013 29.91 842 24.86 3.4 38.1 62 -3.1 26.4
04:45 1013 29.91 842 24.86 3.3 38 62 -3.2 26.3
04:50 1013 29.91 842 24.86 3.4 38 63 -3.1 26.4
04:55 1013 29.91 842 24.86 3.2 37.8 63 -3.1 26.3
05:00 1013 29.91 842 24.86 3.2 37.7 63 -3.2 26.2
05:05 1013 29.91 842 24.86 3.1 37.6 64 -3.1 26.4
05:10 1013 29.91 842 24.86 3 37.3 64 -3.3 26.1
05:15 1013 29.91 842 24.86 2.9 37.2 65 -3.1 26.4
05:20 1013 29.91 842 24.86 2.6 36.6 66 -3.1 26.3
05:25 1013 29.91 842 24.86 2.5 36.5 66 -3.1 26.4
05:30 1013 29.91 842 24.86 2.5 36.5 66 -3.2 26.3
05:35 1013 29.91 842 24.86 2.4 36.4 67 -3.1 26.4
05:40 1013 29.91 842 24.86 2.4 36.3 67 -3 26.6
05:45 1013 29.91 842 24.86 2.2 36 68 -3 26.5
05:50 1013 29.91 842 24.86 2.2 35.9 67 -3.3 26.1
05:55 1013 29.91 842 24.86 2.3 36.1 68 -3 26.6
06:00 1013 29.91 842 24.86 2.2 35.9 69 -3 26.6
06:05 1013 29.91 842 24.86 2.1 35.8 69 -3 26.6
06:10 1013 29.91 842 24.86 2.1 35.8 69 -3 26.7
06:15 1013 29.91 842 24.86 2.1 35.7 69 -3 26.5
06:20 1013 29.91 842 24.86 2 35.7 69 -3 26.6
06:25 1013 29.91 842 24.86 2 35.6 69 -3 26.6
06:30 1013 29.91 842 24.86 2.1 35.8 68 -3.1 26.4
06:35 1013 29.91 842 24.86 2.5 36.4 67 -3.1 26.4
06:40 1013 29.91 842 24.86 2.8 37.1 65 -3.1 26.4
06:45 1013 29.91 842 24.86 3.1 37.7 64 -3 26.7
06:50 1013 29.91 842 24.86 3.3 38 64 -2.9 26.9
06:55 1013 29.91 842 24.86 2.8 37.1 66 -2.9 26.8
07:00 1013 29.91 842 24.86 2.5 36.5 67 -3 26.6
07:05 1013 29.91 842 24.86 2.8 37.1 66 -2.9 26.7
07:10 1013 29.91 842 24.86 3 37.4 65 -3 26.6
07:15 1013 29.91 842 24.86 3.2 37.8 63 -3 26.5
07:20 1013 29.91 842 24.86 3.4 38.1 63 -2.9 26.8
07:25 1013 29.91 843 24.89 3.5 38.2 63 -2.9 26.8
07:30 1013 29.91 843 24.89 3.6 38.5 62 -2.9 26.8
07:35 1013 29.91 843 24.89 3.6 38.5 63 -2.8 27
07:40 1013 29.91 843 24.89 3.6 38.5 63 -2.7 27.1
07:45 1013 29.91 843 24.89 3.7 38.7 62 -3 26.7
07:50 1013 29.91 843 24.89 4.1 39.3 61 -2.8 27
07:55 1013 29.91 843 24.89 4 39.3 62 -2.7 27.2
08:00 1013 29.91 843 24.89 4.2 39.6 61 -2.6 27.4
08:05 1013 29.91 843 24.89 4.5 40 61 -2.4 27.7
08:10 1013 29.91 843 24.89 4.5 40.1 60 -2.5 27.5
08:15 1013 29.91 843 24.89 4.7 40.4 60 -2.3 27.8
08:20 1013 29.91 843 24.89 4.8 40.6 60 -2.2 28
08:25 1013 29.91 843 24.89 4.8 40.7 59 -2.4 27.7
08:30 1014 29.94 843 24.89 5.2 41.4 58 -2.4 27.7
08:35 1013 29.91 843 24.89 5.6 42 57 -2.2 28
08:40 1013 29.91 843 24.89 5.7 42.3 56 -2.4 27.7
08:45 1014 29.94 843 24.89 5.7 42.2 54 -2.9 26.9
08:50 1014 29.94 843 24.89 5.7 42.2 55 -2.6 27.2
08:55 1013 29.91 843 24.89 5.9 42.7 53 -3 26.7
09:00 1013 29.91 843 24.89 6.3 43.3 53 -2.6 27.3
09:05 1013 29.91 843 24.89 6.6 43.9 51 -2.7 27.2
09:10 1013 29.91 843 24.89 7.1 44.7 52 -2.1 28.1
09:15 1013 29.91 843 24.89 7.8 46.1 49 -2.1 28.2
09:20 1013 29.91 843 24.89 8.3 46.9 47 -2.4 27.6
09:25 1013 29.91 843 24.89 8.3 46.9 47 -2.5 27.5
09:30 1013 29.91 843 24.89 8.6 47.5 45 -2.8 27
09:35 1013 29.91 843 24.89 8.8 47.9 43 -2.9 26.7
09:40 1013 29.91 843 24.89 9 48.2 43 -2.9 26.8
09:45 1013 29.91 843 24.89 9.4 48.8 39 -3.9 25
09:50 1013 29.91 843 24.89 9.6 49.3 37 -4.2 24.4
09:55 1013 29.91 843 24.89 10 50 36 -4.5 23.9
10:00 1013 29.91 842 24.86 10.8 51.4 34 -4.3 24.3
10:05 1013 29.91 842 24.86 11.2 52.1 34 -4 24.7
10:10 1013 29.91 842 24.86 10.8 51.4 35 -4.1 24.7
10:15 1013 29.91 842 24.86 10.4 50.8 35 -4.4 24
10:20 1013 29.91 842 24.86 11.1 52.1 33 -4.6 23.7
10:25 1013 29.91 842 24.86 11.8 53.2 31 -4.7 23.6
10:30 1013 29.91 842 24.86 12.3 54.1 36 -2.5 27.5
10:35 1013 29.91 842 24.86 12.3 54.2 36 -2.3 27.8
10:40 1013 29.91 842 24.86 12.5 54.5 38 -1.4 29.5
10:45 1013 29.91 842 24.86 11.7 53.1 37 -2.4 27.6
10:50 1013 29.91 842 24.86 11.3 52.4 37 -2.8 26.9
10:55 1013 29.91 842 24.86 11.8 53.2 38 -2 28.4
11:00 1013 29.91 842 24.86 12.5 54.6 34 -3 26.7
11:05 1013 29.91 842 24.86 12.7 54.8 34 -2.6 27.3
11:10 1013 29.91 842 24.86 11.7 53 38 -2 28.5
11:15 1013 29.91 842 24.86 12.5 54.5 35 -2.5 27.4
11:20 1013 29.91 842 24.86 13.2 55.7 32 -2.9 26.8
11:25 1013 29.91 842 24.86 13.3 56 32 -3 26.6
11:30 1013 29.91 842 24.86 14.2 57.6 29 -3.4 25.9
11:35 1013 29.91 842 24.86 14.6 58.2 30 -2.9 26.8
11:40 1013 29.91 842 24.86 14.4 57.9 30 -3.1 26.5
11:45 1013 29.91 842 24.86 14.7 58.4 29 -3.3 26
11:50 1013 29.91 842 24.86 15 59 26 -4.1 24.6
11:55 1013 29.91 842 24.86 14.6 58.3 26 -4.5 23.9
12:00 1013 29.91 842 24.86 15.2 59.3 25 -4.4 24.1
12:05 1012 29.88 842 24.86 14.8 58.6 25 -5 22.9
12:10 1012 29.88 842 24.86 15 59 26 -4.5 24
12:15 1012 29.88 842 24.86 14.7 58.4 28 -3.6 25.6
12:20 1012 29.88 842 24.86 14.3 57.7 28 -3.9 25
12:25 1012 29.88 842 24.86 13.2 55.8 30 -3.9 25
12:30 1012 29.88 841 24.83 13.5 56.2 28 -4.6 23.7
12:35 1012 29.88 841 24.83 14.1 57.4 27 -4.4 24.1
12:40 1012 29.88 841 24.83 13.6 56.5 29 -4.2 24.5
12:45 1012 29.88 841 24.83 13.5 56.3 28 -4.4 24.1
12:50 1012 29.88 841 24.83 13 55.4 31 -3.9 25.1
12:55 1012 29.88 841 24.83 12.7 54.8 30 -4.3 24.2
13:00 1012 29.88 841 24.83 12.5 54.4 31 -4.1 24.6
13:05 1012 29.88 841 24.83 13.1 55.6 30 -4.2 24.5
13:10 1012 29.88 841 24.83 13.9 56.9 29 -3.8 25.1
13:15 1012 29.88 841 24.83 13.7 56.6 29 -4 24.8
13:20 1012 29.88 841 24.83 13.5 56.4 28 -4.6 23.7
13:25 1012 29.88 841 24.83 14 57.3 29 -3.8 25.2
13:30 1012 29.88 841 24.83 13.4 56.1 30 -3.8 25.1
13:35 1012 29.88 841 24.83 13.3 56 30 -3.8 25.2
13:40 1012 29.88 841 24.83 13.3 55.9 31 -3.5 25.6
13:45 1012 29.88 841 24.83 13.2 55.7 31 -3.7 25.3
13:50 1012 29.88 841 24.83 13.2 55.8 30 -3.7 25.3
13:55 1012 29.88 841 24.83 13.2 55.8 31 -3.3 26.1
14:00 1012 29.88 841 24.83 13.3 55.9 31 -3.3 26
14:05 1012 29.88 841 24.83 14.3 57.8 29 -3.3 26
14:10 1012 29.88 841 24.83 14 57.2 29 -3.5 25.7
14:15 1012 29.88 841 24.83 14.6 58.2 30 -2.6 27.3
14:20 1012 29.88 841 24.83 13.6 56.6 32 -2.5 27.5
14:25 1012 29.88 841 24.83 12.5 54.5 35 -2.4 27.6
14:30 1012 29.88 841 24.83 12.5 54.4 34 -2.9 26.7
14:35 1012 29.88 841 24.83 13 55.4 33 -3 26.6
14:40 1012 29.88 841 24.83 13.5 56.3 32 -3 26.6
14:45 1012 29.88 841 24.83 13.3 56 33 -2.6 27.3
14:50 1012 29.88 841 24.83 12.9 55.2 34 -2.6 27.3
14:55 1012 29.88 841 24.83 12.7 54.8 35 -2.2 28
15:00 1011 29.85 841 24.83 12.5 54.4 35 -2.7 27.2
15:05 1011 29.85 841 24.83 12.2 54 37 -1.8 28.7
15:10 1011 29.85 841 24.83 12.2 53.9 38 -1.8 28.8
15:15 1011 29.85 841 24.83 12 53.6 39 -1.6 29.1
15:20 1011 29.85 841 24.83 12.1 53.7 37 -2.3 27.9
15:25 1011 29.85 841 24.83 12.3 54.2 34 -2.9 26.9
15:30 1011 29.85 841 24.83 12.7 54.9 34 -2.7 27.2
15:35 1011 29.85 841 24.83 12.7 54.9 33 -3 26.6
15:40 1011 29.85 841 24.83 13.7 56.7 30 -3.5 25.8
15:45 1011 29.85 841 24.83 14.5 58.1 30 -3 26.6
15:50 1011 29.85 841 24.83 14.3 57.7 31 -2.6 27.3
15:55 1011 29.85 841 24.83 13.6 56.6 32 -2.8 26.9
16:00 1011 29.85 841 24.83 13.9 57 30 -3.4 25.8
16:05 1011 29.85 840 24.81 14.3 57.7 31 -2.5 27.6
16:10 1011 29.85 840 24.81 14.2 57.6 30 -2.9 26.8
16:15 1011 29.85 840 24.81 14.4 57.9 30 -2.7 27.1
16:20 1011 29.85 840 24.81 14.4 57.9 30 -2.9 26.8
16:25 1011 29.85 840 24.81 13.8 56.8 30 -3.6 25.5
16:30 1011 29.85 840 24.81 13.3 55.9 31 -3.5 25.6
16:35 1011 29.85 840 24.81 13.6 56.4 31 -3.3 26
16:40 1011 29.85 840 24.81 13.6 56.5 31 -3 26.6
16:45 1011 29.85 840 24.81 13.3 55.9 32 -3 26.5
16:50 1011 29.85 840 24.81 13.2 55.7 32 -2.9 26.8
16:55 1011 29.85 840 24.81 13.4 56.2 31 -3.2 26.3
17:00 1011 29.85 840 24.81 13.3 56 34 -2.3 27.9
17:05 1011 29.85 840 24.81 12.9 55.3 34 -2.6 27.4
17:10 1011 29.85 840 24.81 12.9 55.2 33 -2.8 27
17:15 1011 29.85 840 24.81 12.7 54.9 35 -2.2 28.1
17:20 1011 29.85 840 24.81 12.5 54.4 38 -1.4 29.5
17:25 1011 29.85 840 24.81 12.5 54.5 36 -2.2 28
17:30 1011 29.85 840 24.81 12.6 54.7 34 -2.9 26.9
17:35 1011 29.85 840 24.81 12.4 54.2 35 -2.8 27
17:40 1011 29.85 840 24.81 12.3 54.2 41 -0.6 30.9
17:45 1011 29.85 840 24.81 11.7 53.1 42 -0.9 30.5
17:50 1011 29.85 840 24.81 11.8 53.3 44 -0.1 31.8
17:55 1011 29.85 840 24.81 11.9 53.4 43 -0.3 31.4
18:00 1011 29.85 840 24.81 11.9 53.5 44 0.2 32.4
18:05 1011 29.85 841 24.83 12.1 53.8 44 0.4 32.7
18:10 1011 29.85 841 24.83 11.9 53.5 44 -0 32
18:15 1011 29.85 841 24.83 11.5 52.7 45 0 32
18:20 1011 29.85 841 24.83 11.3 52.4 48 0.8 33.5
18:25 1012 29.88 841 24.83 11 51.7 49 0.8 33.4
18:30 1012 29.88 841 24.83 10.5 50.9 53 1.4 34.6
18:35 1012 29.88 841 24.83 10.2 50.3 50 0.3 32.6
18:40 1012 29.88 841 24.83 10.3 50.5 51 0.6 33.1
18:45 1012 29.88 841 24.83 10.1 50.1 52 0.6 33.1
18:50 1012 29.88 841 24.83 10 50 56 1.7 35.1
18:55 1012 29.88 841 24.83 9.8 49.7 57 1.8 35.2
19:00 1012 29.88 841 24.83 9.8 49.7 53 0.6 33.1
19:05 1012 29.88 841 24.83 9.8 49.7 54 1 33.8
19:10 1012 29.88 841 24.83 9.7 49.4 61 2.5 36.5
19:15 1012 29.88 842 24.86 8.9 48.1 65 2.8 37.1
19:20 1012 29.88 842 24.86 8.7 47.6 66 2.7 36.8
19:25 1012 29.88 842 24.86 8.4 47.1 69 3.1 37.7
19:30 1012 29.88 842 24.86 8.2 46.8 71 3.2 37.8
19:35 1012 29.88 842 24.86 8.1 46.6 74 3.7 38.6
19:40 1012 29.88 841 24.83 8.1 46.6 73 3.6 38.5
19:45 1012 29.88 841 24.83 8.4 47.1 70 3.3 38
19:50 1012 29.88 841 24.83 8.5 47.2 70 3.4 38.1
19:55 1012 29.88 841 24.83 8.6 47.5 69 3.3 37.9
20:00 1012 29.88 841 24.83 9 48.2 66 2.9 37.2
20:05 1012 29.88 842 24.86 8.9 48 66 2.9 37.2
20:10 1012 29.88 842 24.86 8.9 47.9 67 3.1 37.6
20:15 1012 29.88 842 24.86 9 48.2 66 3 37.3
20:20 1013 29.91 842 24.86 8.8 47.9 69 3.4 38.2
20:25 1013 29.91 842 24.86 8.8 47.8 68 3.3 37.9
20:30 1013 29.91 842 24.86 8.6 47.4 70 3.5 38.2
20:35 1013 29.91 842 24.86 8.3 46.9 72 3.6 38.5
20:40 1013 29.91 842 24.86 8.2 46.8 73 3.6 38.6
20:45 1013 29.91 842 24.86 8.3 47 70 3.1 37.7
20:50 1013 29.91 842 24.86 8.7 47.6 69 3.4 38.1
20:55 1013 29.91 842 24.86 8.8 47.8 70 3.5 38.3
21:00 1013 29.91 842 24.86 8.6 47.4 71 3.6 38.5
21:05 1013 29.91 842 24.86 8.3 46.9 71 3.3 37.9
21:10 1013 29.91 842 24.86 8.2 46.7 70 3.1 37.5
21:15 1013 29.91 842 24.86 8.3 47 70 3.2 37.7
21:20 1013 29.91 843 24.89 8.1 46.5 74 3.7 38.7
21:25 1013 29.91 843 24.89 7.5 45.6 78 4 39.2
21:30 1014 29.94 843 24.89 7.1 44.8 80 4 39.2
21:35 1014 29.94 843 24.89 7.1 44.8 80 3.9 39
21:40 1014 29.94 843 24.89 7 44.6 83 4.3 39.7
21:45 1014 29.94 843 24.89 6.9 44.4 83 4.1 39.4
21:50 1014 29.94 843 24.89 6.9 44.4 82 4 39.1
21:55 1014 29.94 843 24.89 7.3 45.1 80 4 39.3
22:00 1014 29.94 843 24.89 7.5 45.4 78 3.8 38.9
22:05 1014 29.94 843 24.89 7.5 45.5 78 3.8 38.9
22:10 1014 29.94 843 24.89 7.4 45.3 78 3.9 39
22:15 1014 29.94 843 24.89 7.4 45.4 80 4.2 39.6
22:20 1014 29.94 843 24.89 7.3 45.2 82 4.5 40.1
22:25 1014 29.94 843 24.89 7.2 44.9 85 4.8 40.6
22:30 1014 29.94 843 24.89 7.1 44.8 83 4.4 40
22:35 1014 29.94 843 24.89 7.3 45.1 85 5 40.9
22:40 1014 29.94 843 24.89 7 44.6 86 4.9 40.8
22:45 1014 29.94 843 24.89 6.6 43.9 86 4.5 40.1
22:50 1014 29.94 843 24.89 6.6 43.8 87 4.5 40.1
22:55 1014 29.94 843 24.89 6.6 43.9 86 4.4 39.9
23:00 1014 29.94 843 24.89 6.6 43.8 87 4.5 40.1
23:05 1014 29.94 843 24.89 6.6 43.8 87 4.6 40.2
23:10 1014 29.94 843 24.89 6.6 43.9 89 4.9 40.8
23:15 1014 29.94 843 24.89 6.5 43.8 89 4.8 40.7
23:20 1014 29.94 843 24.89 6.5 43.7 89 4.8 40.7
23:25 1014 29.94 843 24.89 6.4 43.5 87 4.4 39.9
23:30 1014 29.94 843 24.89 6.4 43.4 85 4.1 39.3
23:35 1014 29.94 843 24.89 6.3 43.3 87 4.2 39.6
23:40 1014 29.94 843 24.89 6.4 43.5 88 4.5 40.1
23:45 1014 29.94 843 24.89 6.4 43.5 89 4.7 40.4
23:50 1014 29.94 843 24.89 6.4 43.5 88 4.6 40.2
23:55 1014 29.94 843 24.89 6.3 43.3 89 4.6 40.3
24:00 1014 29.94 843 24.89 6.2 43.1 89 4.5 40.1